createdAt,value
2023-01-13T00:04:43.268Z,95.21
2023-01-13T00:09:45.414Z,95.53
2023-01-13T00:14:47.571Z,95.80
2023-01-13T00:19:50.042Z,95.86
2023-01-13T00:24:52.361Z,95.84
2023-01-13T00:29:54.433Z,95.88
2023-01-13T00:34:56.534Z,95.89
2023-01-13T00:39:58.593Z,95.83
2023-01-13T00:45:00.818Z,95.80
2023-01-13T00:50:02.967Z,95.70
2023-01-13T00:55:05.483Z,95.45
2023-01-13T01:00:08.585Z,95.23
2023-01-13T01:05:10.833Z,95.12
2023-01-13T01:10:12.908Z,94.85
2023-01-13T01:15:15.090Z,94.61
2023-01-13T01:20:17.312Z,94.55
2023-01-13T01:25:19.414Z,94.15
2023-01-13T01:30:21.473Z,94.17
2023-01-13T01:35:26.366Z,94.11
2023-01-13T01:40:28.438Z,94.18
2023-01-13T01:45:31.318Z,94.18
2023-01-13T01:50:34.344Z,94.08
2023-01-13T01:55:38.512Z,93.69
2023-01-13T02:00:40.793Z,93.55
2023-01-13T02:05:43.039Z,93.54
2023-01-13T02:10:53.236Z,93.37
2023-01-13T02:16:07.970Z,93.19
2023-01-13T02:21:13.667Z,93.03
2023-01-13T02:26:21.656Z,92.73
2023-01-13T02:31:42.340Z,92.35
2023-01-13T02:36:53.379Z,91.98
2023-01-13T02:42:33.658Z,91.33
2023-01-13T02:47:39.432Z,90.85
2023-01-13T02:52:45.840Z,90.73
2023-01-13T02:57:49.717Z,91.08
2023-01-13T03:02:52.252Z,91.66
2023-01-13T03:08:10.067Z,91.63
2023-01-13T03:14:16.978Z,91.76
2023-01-13T03:19:42.920Z,92.01
2023-01-13T03:24:50.999Z,92.19
2023-01-13T03:30:02.014Z,92.18
2023-01-13T03:35:23.603Z,92.27
2023-01-13T03:40:35.327Z,92.45
2023-01-13T03:45:41.361Z,92.64
2023-01-13T03:51:08.013Z,92.58
2023-01-13T03:56:39.641Z,92.62
2023-01-13T04:01:47.845Z,92.52
2023-01-13T04:07:00.601Z,92.61
2023-01-13T04:12:18.535Z,92.61
2023-01-13T04:17:21.358Z,92.51
2023-01-13T04:22:23.444Z,92.49
2023-01-13T04:27:25.536Z,92.49
2023-01-13T04:32:27.681Z,92.47
2023-01-13T04:37:29.779Z,92.47
2023-01-13T04:42:31.921Z,92.39
2023-01-13T04:47:34.021Z,92.43
2023-01-13T04:52:36.143Z,92.45
2023-01-13T04:57:38.430Z,92.50
2023-01-13T05:02:40.985Z,92.64
2023-01-13T05:07:43.054Z,92.67
2023-01-13T05:13:04.854Z,92.93
2023-01-13T05:18:07.353Z,93.08
2023-01-13T05:23:28.167Z,93.25
2023-01-13T05:28:34.505Z,93.43
2023-01-13T05:33:36.621Z,93.47
2023-01-13T05:38:38.830Z,93.61
2023-01-13T05:43:40.954Z,93.76
2023-01-13T05:48:43.819Z,93.81
2023-01-13T05:53:45.928Z,93.73
2023-01-13T05:58:48.008Z,93.97
2023-01-13T06:03:50.182Z,93.85
2023-01-13T06:08:52.318Z,93.87
2023-01-13T06:13:54.423Z,93.70
2023-01-13T06:18:56.558Z,93.65
2023-01-13T06:23:59.573Z,93.65
2023-01-13T06:29:01.700Z,93.47
2023-01-13T06:34:08.971Z,93.08
2023-01-13T06:39:16.856Z,92.54
2023-01-13T06:44:20.432Z,92.15
2023-01-13T06:49:22.532Z,91.87
2023-01-13T06:54:26.324Z,91.58
2023-01-13T06:59:30.180Z,91.22
2023-01-13T07:04:32.299Z,91.10
2023-01-13T07:09:35.616Z,91.33
2023-01-13T07:14:56.428Z,91.16
2023-01-13T07:20:01.719Z,91.05
2023-01-13T07:25:04.288Z,90.51
2023-01-13T07:30:07.609Z,89.97
2023-01-13T07:35:09.981Z,89.24
2023-01-13T07:40:13.096Z,88.59
2023-01-13T07:45:15.228Z,88.16
2023-01-13T07:50:17.512Z,87.49
2023-01-13T07:55:19.654Z,86.98
2023-01-13T08:00:22.316Z,86.48
2023-01-13T08:05:24.464Z,86.45
2023-01-13T08:10:26.616Z,86.10
2023-01-13T08:15:29.808Z,86.00
2023-01-13T08:20:31.927Z,85.92
2023-01-13T08:25:34.212Z,85.25
2023-01-13T08:30:36.479Z,85.02
2023-01-13T08:35:40.033Z,84.81
2023-01-13T08:40:42.199Z,84.23
2023-01-13T08:45:44.434Z,84.28
2023-01-13T08:50:46.576Z,84.84
2023-01-13T08:55:48.714Z,83.86
2023-01-13T09:00:50.898Z,84.17
2023-01-13T09:05:53.020Z,83.89
2023-01-13T09:10:55.191Z,84.22
2023-01-13T09:15:58.643Z,84.59
2023-01-13T09:21:01.842Z,84.15
2023-01-13T09:26:07.321Z,83.97
2023-01-13T09:31:09.642Z,83.49
2023-01-13T09:36:11.908Z,82.91
2023-01-13T09:41:39.891Z,83.42
2023-01-13T09:46:48.233Z,83.25
2023-01-13T09:52:27.560Z,84.66
2023-01-13T09:57:34.770Z,84.74
2023-01-13T10:02:36.839Z,84.37
2023-01-13T10:07:46.724Z,85.41
2023-01-13T10:13:08.879Z,84.13
2023-01-13T10:18:24.676Z,83.99
2023-01-13T10:23:56.712Z,84.06
2023-01-13T10:28:58.813Z,85.12
2023-01-13T10:34:06.456Z,84.43
2023-01-13T10:39:15.194Z,82.53
2023-01-13T10:44:18.871Z,84.05
2023-01-13T10:49:36.468Z,84.83
2023-01-13T10:54:53.948Z,84.91
2023-01-13T10:59:56.452Z,85.29
2023-01-13T11:05:03.624Z,84.71
2023-01-13T11:10:28.143Z,83.96
2023-01-13T11:15:40.766Z,85.05
2023-01-13T11:20:51.938Z,85.45
2023-01-13T11:26:01.813Z,84.54
2023-01-13T11:31:52.091Z,84.49
2023-01-13T11:36:56.902Z,84.75
2023-01-13T11:42:21.670Z,84.88
2023-01-13T11:47:26.080Z,84.15
2023-01-13T11:52:46.133Z,83.68
2023-01-13T11:58:12.917Z,83.85
2023-01-13T12:03:31.437Z,84.72
2023-01-13T12:09:12.000Z,85.09
2023-01-13T12:14:26.357Z,84.63
2023-01-13T12:19:30.982Z,84.72
2023-01-13T12:24:56.621Z,84.34
2023-01-13T12:30:01.954Z,83.74
2023-01-13T12:35:19.164Z,84.31
2023-01-13T12:40:48.070Z,84.37
2023-01-13T12:45:50.203Z,84.75
2023-01-13T12:51:00.745Z,84.69
2023-01-13T12:56:21.627Z,84.88
2023-01-13T13:01:35.884Z,84.45
2023-01-13T13:06:45.143Z,83.91
2023-01-13T13:11:58.392Z,84.40
2023-01-13T13:17:01.157Z,84.31
2023-01-13T13:22:10.020Z,83.39
2023-01-13T13:27:38.310Z,83.12
2023-01-13T13:32:46.593Z,83.41
2023-01-13T13:38:41.671Z,83.14
2023-01-13T13:44:04.487Z,82.94
2023-01-13T13:49:06.670Z,83.54
2023-01-13T13:54:16.901Z,83.93
2023-01-13T13:59:30.674Z,84.26
2023-01-13T14:04:40.769Z,84.47
2023-01-13T14:09:46.361Z,84.31
2023-01-13T14:14:49.848Z,83.74
2023-01-13T14:20:10.412Z,83.83
2023-01-13T14:25:38.333Z,84.15
2023-01-13T14:30:42.066Z,84.96
2023-01-13T14:36:14.738Z,85.57
2023-01-13T14:41:22.092Z,85.83
2023-01-13T14:46:25.667Z,86.01
2023-01-13T14:51:30.242Z,86.02
2023-01-13T14:57:01.735Z,86.08
2023-01-13T15:02:25.649Z,85.75
2023-01-13T15:07:30.304Z,86.09
2023-01-13T15:12:40.664Z,86.16
2023-01-13T15:17:42.847Z,86.44
2023-01-13T15:22:45.706Z,86.75
2023-01-13T15:27:51.782Z,87.05
2023-01-13T15:32:56.174Z,87.38
2023-01-13T15:37:58.710Z,87.58
2023-01-13T15:43:19.592Z,87.72
2023-01-13T15:48:24.029Z,87.23
2023-01-13T15:53:26.257Z,87.12
2023-01-13T15:58:30.659Z,87.42
2023-01-13T16:03:32.818Z,87.51
2023-01-13T16:08:35.007Z,87.64
2023-01-13T16:13:37.380Z,87.78
2023-01-13T16:18:39.521Z,87.81
2023-01-13T16:23:42.235Z,87.46
2023-01-13T16:28:44.702Z,87.43
2023-01-13T16:33:46.939Z,87.08
2023-01-13T16:38:51.239Z,86.86
2023-01-13T16:43:53.612Z,86.85
2023-01-13T16:49:04.404Z,86.89
2023-01-13T16:54:06.826Z,86.72
2023-01-13T16:59:14.861Z,86.71
2023-01-13T17:04:20.245Z,86.64
2023-01-13T17:09:24.996Z,86.19
2023-01-13T17:14:27.289Z,85.83
2023-01-13T17:19:29.467Z,85.33
2023-01-13T17:24:32.704Z,85.02
2023-01-13T17:29:35.380Z,84.58
2023-01-13T17:34:37.573Z,84.58
2023-01-13T17:39:40.100Z,84.55
2023-01-13T17:44:42.493Z,84.40
2023-01-13T17:49:44.678Z,84.13
2023-01-13T17:54:46.836Z,83.89
2023-01-13T17:59:48.963Z,83.74
2023-01-13T18:04:51.092Z,83.56
2023-01-13T18:09:53.239Z,83.58
2023-01-13T18:14:55.914Z,83.46
2023-01-13T18:20:16.727Z,83.38
2023-01-13T18:25:37.412Z,83.22
2023-01-13T18:30:39.542Z,83.11
2023-01-13T18:35:41.666Z,83.11
2023-01-13T18:40:44.945Z,83.19
2023-01-13T18:45:50.444Z,83.01
2023-01-13T18:50:53.428Z,82.73
2023-01-13T18:55:55.575Z,82.88
2023-01-13T19:01:05.279Z,83.01
2023-01-13T19:06:13.193Z,83.24
2023-01-13T19:11:15.295Z,82.90
2023-01-13T19:16:19.204Z,83.15
2023-01-13T19:21:21.678Z,83.60
2023-01-13T19:26:23.809Z,83.99
2023-01-13T19:31:25.936Z,84.21
2023-01-13T19:36:28.230Z,84.28
2023-01-13T19:41:49.483Z,84.29
2023-01-13T19:46:51.659Z,83.92
2023-01-13T19:51:53.768Z,83.83
2023-01-13T19:56:56.099Z,83.74
2023-01-13T20:02:00.627Z,83.71
2023-01-13T20:07:03.922Z,83.48
2023-01-13T20:12:15.340Z,83.54
2023-01-13T20:17:19.768Z,84.31
2023-01-13T20:22:21.901Z,84.78
2023-01-13T20:27:24.341Z,85.49
2023-01-13T20:32:26.525Z,85.69
2023-01-13T20:37:28.648Z,86.02
2023-01-13T20:42:52.479Z,85.32
2023-01-13T20:47:54.918Z,84.50
2023-01-13T20:52:57.010Z,84.09
2023-01-13T20:57:59.103Z,86.15
2023-01-13T21:03:01.198Z,85.70
2023-01-13T21:08:03.439Z,85.72
2023-01-13T21:13:24.276Z,86.91
2023-01-13T21:18:44.813Z,89.71
2023-01-13T21:23:49.862Z,90.26
2023-01-13T21:28:57.193Z,90.71
2023-01-13T21:33:59.772Z,90.16
2023-01-13T21:39:01.899Z,90.26
2023-01-13T21:44:22.705Z,90.54
2023-01-13T21:49:24.807Z,90.41
2023-01-13T21:54:26.894Z,90.52
2023-01-13T21:59:28.957Z,91.52
2023-01-13T22:04:31.063Z,93.40
2023-01-13T22:09:33.167Z,93.68
2023-01-13T22:14:36.290Z,93.78
2023-01-13T22:19:42.122Z,93.49
2023-01-13T22:24:46.465Z,93.61
2023-01-13T22:29:49.807Z,93.11
2023-01-13T22:34:51.916Z,93.05
2023-01-13T22:39:53.997Z,93.02
2023-01-13T22:44:56.095Z,93.70
2023-01-13T22:49:58.178Z,93.57
2023-01-13T22:55:00.946Z,93.42
2023-01-13T23:00:04.808Z,93.42
2023-01-13T23:05:07.288Z,93.68
2023-01-13T23:10:09.870Z,93.43
2023-01-13T23:15:12.013Z,93.46
2023-01-13T23:20:14.472Z,93.74
2023-01-13T23:25:16.652Z,94.13
2023-01-13T23:30:19.087Z,94.43
2023-01-13T23:35:21.179Z,94.41
2023-01-13T23:40:23.246Z,94.51
2023-01-13T23:45:25.387Z,95.09
2023-01-13T23:50:27.508Z,94.81
2023-01-13T23:55:29.732Z,94.54
